sensor_id;sensor_type;location;lat;lon;timestamp;pressure;altitude;pressure_sealevel;temperature;humidity
48874;BME280;35220;46.204;5.220;2022-11-25T00:03:05;98610.34;;;9.41;67.96
48874;BME280;35220;46.204;5.220;2022-11-25T00:08:05;98615.88;;;9.44;67.83
48874;BME280;35220;46.204;5.220;2022-11-25T00:13:06;98613.34;;;9.49;67.78
48874;BME280;35220;46.204;5.220;2022-11-25T00:18:07;98613.63;;;9.53;67.47
48874;BME280;35220;46.204;5.220;2022-11-25T00:23:07;98613.16;;;9.56;67.47
48874;BME280;35220;46.204;5.220;2022-11-25T00:28:08;98611.28;;;9.51;67.37
48874;BME280;35220;46.204;5.220;2022-11-25T00:33:08;98614.59;;;9.47;67.43
48874;BME280;35220;46.204;5.220;2022-11-25T00:38:09;98619.97;;;9.40;67.52
48874;BME280;35220;46.204;5.220;2022-11-25T00:43:09;98632.31;;;9.50;67.44
48874;BME280;35220;46.204;5.220;2022-11-25T00:48:28;98639.63;;;9.53;67.02
48874;BME280;35220;46.204;5.220;2022-11-25T00:53:30;98639.72;;;9.58;66.55
48874;BME280;35220;46.204;5.220;2022-11-25T00:58:30;98648.66;;;9.67;66.33
48874;BME280;35220;46.204;5.220;2022-11-25T01:03:31;98631.22;;;9.68;65.44
48874;BME280;35220;46.204;5.220;2022-11-25T01:08:33;98632.88;;;9.74;65.92
48874;BME280;35220;46.204;5.220;2022-11-25T01:13:34;98644.06;;;9.75;65.87
48874;BME280;35220;46.204;5.220;2022-11-25T01:18:34;98649.44;;;9.68;65.58
48874;BME280;35220;46.204;5.220;2022-11-25T01:23:35;98657.56;;;9.71;65.39
48874;BME280;35220;46.204;5.220;2022-11-25T01:28:39;98656.31;;;9.74;65.56
48874;BME280;35220;46.204;5.220;2022-11-25T01:33:40;98652.97;;;9.79;65.77
48874;BME280;35220;46.204;5.220;2022-11-25T01:38:42;98668.16;;;9.87;65.61
48874;BME280;35220;46.204;5.220;2022-11-25T01:44:02;98678.94;;;9.96;64.55
48874;BME280;35220;46.204;5.220;2022-11-25T01:49:06;98671.19;;;10.01;64.71
48874;BME280;35220;46.204;5.220;2022-11-25T01:54:11;98675.63;;;10.00;64.68
48874;BME280;35220;46.204;5.220;2022-11-25T01:59:13;98683.72;;;10.04;64.47
48874;BME280;35220;46.204;5.220;2022-11-25T02:04:15;98688.66;;;10.05;64.44
48874;BME280;35220;46.204;5.220;2022-11-25T02:09:17;98685.06;;;10.06;64.48
48874;BME280;35220;46.204;5.220;2022-11-25T02:14:21;98674.88;;;10.05;64.09
48874;BME280;35220;46.204;5.220;2022-11-25T02:19:25;98673.91;;;10.11;64.22
48874;BME280;35220;46.204;5.220;2022-11-25T02:24:36;98675.19;;;10.08;64.47
48874;BME280;35220;46.204;5.220;2022-11-25T02:29:39;98670.72;;;10.04;64.67
48874;BME280;35220;46.204;5.220;2022-11-25T02:34:47;98665.44;;;9.99;64.95
48874;BME280;35220;46.204;5.220;2022-11-25T02:39:48;98662.47;;;9.90;64.87
48874;BME280;35220;46.204;5.220;2022-11-25T02:44:50;98657.34;;;9.95;64.78
48874;BME280;35220;46.204;5.220;2022-11-25T02:49:51;98660.66;;;9.90;64.76
48874;BME280;35220;46.204;5.220;2022-11-25T02:54:51;98657.75;;;9.87;64.86
48874;BME280;35220;46.204;5.220;2022-11-25T02:59:52;98648.88;;;9.83;65.62
48874;BME280;35220;46.204;5.220;2022-11-25T03:04:52;98638.31;;;9.73;65.78
48874;BME280;35220;46.204;5.220;2022-11-25T03:09:52;98638.25;;;9.67;65.65
48874;BME280;35220;46.204;5.220;2022-11-25T03:14:53;98633.47;;;9.59;65.34
48874;BME280;35220;46.204;5.220;2022-11-25T03:19:53;98628.78;;;9.56;65.23
48874;BME280;35220;46.204;5.220;2022-11-25T03:24:54;98645.94;;;9.57;65.59
48874;BME280;35220;46.204;5.220;2022-11-25T03:29:54;98658.22;;;9.62;65.14
48874;BME280;35220;46.204;5.220;2022-11-25T03:34:55;98659.78;;;9.63;65.23
48874;BME280;35220;46.204;5.220;2022-11-25T03:39:55;98666.34;;;9.65;64.92
48874;BME280;35220;46.204;5.220;2022-11-25T03:44:56;98671.53;;;9.65;64.67
48874;BME280;35220;46.204;5.220;2022-11-25T03:49:56;98669.94;;;9.64;64.66
48874;BME280;35220;46.204;5.220;2022-11-25T03:54:56;98670.06;;;9.52;65.17
48874;BME280;35220;46.204;5.220;2022-11-25T03:59:57;98677.50;;;9.44;65.45
48874;BME280;35220;46.204;5.220;2022-11-25T04:04:58;98684.19;;;9.40;65.44
48874;BME280;35220;46.204;5.220;2022-11-25T04:09:58;98679.72;;;9.35;65.58
48874;BME280;35220;46.204;5.220;2022-11-25T04:14:59;98678.31;;;9.27;65.52
48874;BME280;35220;46.204;5.220;2022-11-25T04:19:59;98678.22;;;9.22;65.48
48874;BME280;35220;46.204;5.220;2022-11-25T04:25:00;98671.44;;;9.21;65.47
48874;BME280;35220;46.204;5.220;2022-11-25T04:30:00;98679.25;;;9.21;65.81
48874;BME280;35220;46.204;5.220;2022-11-25T04:35:01;98671.50;;;9.09;65.96
48874;BME280;35220;46.204;5.220;2022-11-25T04:40:01;98672.16;;;9.00;66.09
48874;BME280;35220;46.204;5.220;2022-11-25T04:45:08;98695.69;;;8.93;66.36
48874;BME280;35220;46.204;5.220;2022-11-25T04:50:15;98684.44;;;8.87;66.37
48874;BME280;35220;46.204;5.220;2022-11-25T04:55:17;98686.72;;;8.84;66.06
48874;BME280;35220;46.204;5.220;2022-11-25T05:00:21;98685.38;;;8.81;66.56
48874;BME280;35220;46.204;5.220;2022-11-25T05:05:22;98690.81;;;8.80;66.15
48874;BME280;35220;46.204;5.220;2022-11-25T05:10:23;98695.78;;;8.81;66.26
48874;BME280;35220;46.204;5.220;2022-11-25T05:15:23;98689.53;;;8.82;66.20
48874;BME280;35220;46.204;5.220;2022-11-25T05:20:24;98687.03;;;8.87;65.93
48874;BME280;35220;46.204;5.220;2022-11-25T05:25:24;98679.25;;;9.04;65.50
48874;BME280;35220;46.204;5.220;2022-11-25T05:30:25;98696.34;;;9.17;65.28
48874;BME280;35220;46.204;5.220;2022-11-25T05:35:26;98697.19;;;9.23;64.97
48874;BME280;35220;46.204;5.220;2022-11-25T05:40:26;98704.00;;;9.24;64.96
48874;BME280;35220;46.204;5.220;2022-11-25T05:45:27;98703.72;;;9.25;64.68
48874;BME280;35220;46.204;5.220;2022-11-25T05:50:27;98715.16;;;9.24;64.43
48874;BME280;35220;46.204;5.220;2022-11-25T05:55:28;98717.34;;;9.32;64.26
48874;BME280;35220;46.204;5.220;2022-11-25T06:00:28;98723.91;;;9.35;64.35
48874;BME280;35220;46.204;5.220;2022-11-25T06:05:28;98738.16;;;9.32;64.32
48874;BME280;35220;46.204;5.220;2022-11-25T06:10:29;98742.88;;;9.36;64.24
48874;BME280;35220;46.204;5.220;2022-11-25T06:15:29;98773.25;;;9.47;64.13
48874;BME280;35220;46.204;5.220;2022-11-25T06:20:30;98785.59;;;9.57;63.60
48874;BME280;35220;46.204;5.220;2022-11-25T06:25:30;98795.41;;;9.66;63.78
48874;BME280;35220;46.204;5.220;2022-11-25T06:30:31;98815.72;;;9.52;63.87
48874;BME280;35220;46.204;5.220;2022-11-25T06:35:31;98811.53;;;9.51;63.84
48874;BME280;35220;46.204;5.220;2022-11-25T06:40:32;98809.72;;;9.69;63.89
48874;BME280;35220;46.204;5.220;2022-11-25T06:45:32;98808.63;;;9.82;64.27
48874;BME280;35220;46.204;5.220;2022-11-25T06:50:33;98817.03;;;9.89;64.48
48874;BME280;35220;46.204;5.220;2022-11-25T06:55:33;98837.94;;;9.94;64.61
48874;BME280;35220;46.204;5.220;2022-11-25T07:00:34;98846.84;;;9.98;64.54
48874;BME280;35220;46.204;5.220;2022-11-25T07:05:34;98856.00;;;9.84;65.50
48874;BME280;35220;46.204;5.220;2022-11-25T07:10:35;98855.38;;;9.94;65.89
48874;BME280;35220;46.204;5.220;2022-11-25T07:15:35;98866.25;;;9.90;66.30
48874;BME280;35220;46.204;5.220;2022-11-25T07:20:35;98872.25;;;9.91;67.37
48874;BME280;35220;46.204;5.220;2022-11-25T07:25:36;98877.44;;;9.91;66.98
48874;BME280;35220;46.204;5.220;2022-11-25T07:30:37;98889.81;;;9.84;68.32
48874;BME280;35220;46.204;5.220;2022-11-25T07:35:37;98891.41;;;10.02;67.74
48874;BME280;35220;46.204;5.220;2022-11-25T07:40:37;98904.03;;;10.10;67.93
48874;BME280;35220;46.204;5.220;2022-11-25T07:45:38;98896.00;;;10.12;67.99
48874;BME280;35220;46.204;5.220;2022-11-25T07:50:38;98894.34;;;10.39;67.07
48874;BME280;35220;46.204;5.220;2022-11-25T07:55:38;98891.38;;;10.53;66.88
48874;BME280;35220;46.204;5.220;2022-11-25T08:00:39;98895.03;;;10.52;67.13
48874;BME280;35220;46.204;5.220;2022-11-25T08:05:39;98901.16;;;10.28;68.14
48874;BME280;35220;46.204;5.220;2022-11-25T08:10:39;98902.94;;;10.40;67.77
48874;BME280;35220;46.204;5.220;2022-11-25T08:15:40;98904.88;;;10.50;67.60
48874;BME280;35220;46.204;5.220;2022-11-25T08:20:40;98902.28;;;10.50;67.46
48874;BME280;35220;46.204;5.220;2022-11-25T08:25:42;98901.41;;;10.44;67.86
48874;BME280;35220;46.204;5.220;2022-11-25T08:30:42;98902.34;;;10.55;67.82
48874;BME280;35220;46.204;5.220;2022-11-25T08:35:42;98910.44;;;10.75;67.34
48874;BME280;35220;46.204;5.220;2022-11-25T08:40:43;98910.88;;;10.89;67.47
48874;BME280;35220;46.204;5.220;2022-11-25T08:45:44;98927.22;;;11.07;67.30
48874;BME280;35220;46.204;5.220;2022-11-25T08:50:49;98934.13;;;11.18;66.98
48874;BME280;35220;46.204;5.220;2022-11-25T08:55:50;98937.28;;;11.20;67.49
48874;BME280;35220;46.204;5.220;2022-11-25T09:00:50;98931.34;;;11.02;68.03
48874;BME280;35220;46.204;5.220;2022-11-25T09:05:51;98935.41;;;11.15;67.74
48874;BME280;35220;46.204;5.220;2022-11-25T09:10:52;98940.38;;;11.39;67.21
48874;BME280;35220;46.204;5.220;2022-11-25T09:15:52;98948.38;;;11.59;66.84
48874;BME280;35220;46.204;5.220;2022-11-25T09:20:52;98942.56;;;11.79;66.75
48874;BME280;35220;46.204;5.220;2022-11-25T09:25:57;98947.41;;;11.66;67.05
48874;BME280;35220;46.204;5.220;2022-11-25T09:30:57;98943.69;;;11.61;67.11
48874;BME280;35220;46.204;5.220;2022-11-25T09:36:02;98933.22;;;11.84;66.32
48874;BME280;35220;46.204;5.220;2022-11-25T09:41:27;98939.03;;;12.23;65.42
48874;BME280;35220;46.204;5.220;2022-11-25T09:47:28;98953.97;;;12.70;63.73
48874;BME280;35220;46.204;5.220;2022-11-25T09:52:35;98970.81;;;13.00;63.50
48874;BME280;35220;46.204;5.220;2022-11-25T09:57:56;98986.09;;;13.19;63.12
48874;BME280;35220;46.204;5.220;2022-11-25T10:08:18;98989.25;;;13.21;62.99
48874;BME280;35220;46.204;5.220;2022-11-25T10:13:26;98994.59;;;12.88;62.86
48874;BME280;35220;46.204;5.220;2022-11-25T10:18:41;98995.44;;;12.99;63.29
48874;BME280;35220;46.204;5.220;2022-11-25T10:23:43;99006.34;;;12.91;63.81
48874;BME280;35220;46.204;5.220;2022-11-25T10:29:10;99010.97;;;12.73;63.39
48874;BME280;35220;46.204;5.220;2022-11-25T10:34:40;99019.03;;;12.67;64.07
48874;BME280;35220;46.204;5.220;2022-11-25T10:39:39;99026.03;;;12.56;64.35
48874;BME280;35220;46.204;5.220;2022-11-25T10:44:40;99035.88;;;12.44;64.86
48874;BME280;35220;46.204;5.220;2022-11-25T10:55:13;99044.72;;;12.43;64.64
48874;BME280;35220;46.204;5.220;2022-11-25T11:00:35;99045.84;;;12.52;64.46
48874;BME280;35220;46.204;5.220;2022-11-25T11:05:44;99053.75;;;12.62;64.00
48874;BME280;35220;46.204;5.220;2022-11-25T11:10:46;99054.84;;;12.66;64.09
48874;BME280;35220;46.204;5.220;2022-11-25T11:15:47;99063.13;;;12.53;64.51
48874;BME280;35220;46.204;5.220;2022-11-25T11:20:49;99058.47;;;12.60;64.43
48874;BME280;35220;46.204;5.220;2022-11-25T11:26:04;99051.94;;;12.63;64.14
48874;BME280;35220;46.204;5.220;2022-11-25T11:31:14;99061.59;;;12.62;64.09
48874;BME280;35220;46.204;5.220;2022-11-25T11:41:53;99066.84;;;12.62;63.40
48874;BME280;35220;46.204;5.220;2022-11-25T12:03:28;99081.72;;;12.02;63.66
48874;BME280;35220;46.204;5.220;2022-11-25T12:08:30;99074.72;;;12.08;63.47
48874;BME280;35220;46.204;5.220;2022-11-25T12:19:03;99077.53;;;12.28;62.67
48874;BME280;35220;46.204;5.220;2022-11-25T12:24:20;99070.09;;;12.42;62.72
48874;BME280;35220;46.204;5.220;2022-11-25T12:34:33;99068.56;;;12.84;62.17
48874;BME280;35220;46.204;5.220;2022-11-25T12:39:46;99074.63;;;12.94;61.84
48874;BME280;35220;46.204;5.220;2022-11-25T12:44:55;99065.44;;;12.87;62.44
48874;BME280;35220;46.204;5.220;2022-11-25T12:49:58;99083.53;;;12.93;62.52
48874;BME280;35220;46.204;5.220;2022-11-25T13:15:47;99110.31;;;12.41;63.24
48874;BME280;35220;46.204;5.220;2022-11-25T13:20:51;99121.06;;;12.45;63.86
48874;BME280;35220;46.204;5.220;2022-11-25T13:31:33;99136.50;;;12.19;65.10
48874;BME280;35220;46.204;5.220;2022-11-25T13:36:45;99140.41;;;11.94;65.74
48874;BME280;35220;46.204;5.220;2022-11-25T13:41:49;99142.31;;;11.82;65.63
48874;BME280;35220;46.204;5.220;2022-11-25T13:46:58;99143.34;;;11.81;65.50
48874;BME280;35220;46.204;5.220;2022-11-25T13:52:21;99139.78;;;11.87;65.70
48874;BME280;35220;46.204;5.220;2022-11-25T13:57:27;99151.53;;;11.68;66.74
48874;BME280;35220;46.204;5.220;2022-11-25T14:02:33;99154.69;;;11.70;66.63
48874;BME280;35220;46.204;5.220;2022-11-25T14:13:20;99142.56;;;11.58;67.95
48874;BME280;35220;46.204;5.220;2022-11-25T14:34:48;99174.50;;;11.49;68.71
48874;BME280;35220;46.204;5.220;2022-11-25T14:39:58;99174.75;;;11.47;68.55
48874;BME280;35220;46.204;5.220;2022-11-25T14:45:01;99185.91;;;11.43;68.27
48874;BME280;35220;46.204;5.220;2022-11-25T14:50:02;99183.31;;;11.43;68.59
48874;BME280;35220;46.204;5.220;2022-11-25T14:55:04;99190.09;;;11.44;68.61
48874;BME280;35220;46.204;5.220;2022-11-25T15:00:13;99202.19;;;11.33;69.93
48874;BME280;35220;46.204;5.220;2022-11-25T15:05:20;99217.53;;;11.29;69.43
48874;BME280;35220;46.204;5.220;2022-11-25T15:15:44;99233.72;;;11.31;69.60
48874;BME280;35220;46.204;5.220;2022-11-25T15:20:48;99232.88;;;11.26;69.84
48874;BME280;35220;46.204;5.220;2022-11-25T15:25:52;99233.09;;;11.24;69.61
48874;BME280;35220;46.204;5.220;2022-11-25T15:31:00;99237.38;;;11.13;70.07
48874;BME280;35220;46.204;5.220;2022-11-25T15:36:00;99246.56;;;11.16;70.22
48874;BME280;35220;46.204;5.220;2022-11-25T15:41:01;99260.75;;;11.08;71.09
48874;BME280;35220;46.204;5.220;2022-11-25T15:46:03;99257.50;;;11.01;71.13
48874;BME280;35220;46.204;5.220;2022-11-25T15:56:22;99285.34;;;10.83;71.73
48874;BME280;35220;46.204;5.220;2022-11-25T16:01:27;99292.19;;;10.73;72.00
48874;BME280;35220;46.204;5.220;2022-11-25T16:06:28;99293.25;;;10.60;71.93
48874;BME280;35220;46.204;5.220;2022-11-25T16:11:29;99297.59;;;10.42;73.50
48874;BME280;35220;46.204;5.220;2022-11-25T16:16:43;99314.06;;;10.31;73.25
48874;BME280;35220;46.204;5.220;2022-11-25T16:21:53;99322.16;;;10.23;73.60
48874;BME280;35220;46.204;5.220;2022-11-25T16:27:13;99334.28;;;10.17;74.76
48874;BME280;35220;46.204;5.220;2022-11-25T16:32:26;99334.53;;;10.04;75.25
48874;BME280;35220;46.204;5.220;2022-11-25T16:37:27;99336.00;;;10.00;74.80
48874;BME280;35220;46.204;5.220;2022-11-25T16:42:27;99334.53;;;9.92;75.38
48874;BME280;35220;46.204;5.220;2022-11-25T16:47:28;99349.47;;;9.85;75.31
48874;BME280;35220;46.204;5.220;2022-11-25T16:52:28;99350.69;;;9.82;76.21
48874;BME280;35220;46.204;5.220;2022-11-25T16:57:29;99364.50;;;9.83;75.84
48874;BME280;35220;46.204;5.220;2022-11-25T17:02:29;99375.94;;;9.82;75.52
48874;BME280;35220;46.204;5.220;2022-11-25T17:07:30;99382.28;;;9.86;75.76
48874;BME280;35220;46.204;5.220;2022-11-25T17:12:32;99386.13;;;9.95;76.10
48874;BME280;35220;46.204;5.220;2022-11-25T17:17:33;99388.75;;;9.95;75.24
48874;BME280;35220;46.204;5.220;2022-11-25T17:22:34;99402.41;;;9.90;76.04
48874;BME280;35220;46.204;5.220;2022-11-25T17:27:34;99409.44;;;9.90;76.45
48874;BME280;35220;46.204;5.220;2022-11-25T17:32:35;99416.69;;;9.88;76.11
48874;BME280;35220;46.204;5.220;2022-11-25T17:37:35;99415.00;;;10.05;75.51
48874;BME280;35220;46.204;5.220;2022-11-25T17:42:36;99423.16;;;10.21;74.70
48874;BME280;35220;46.204;5.220;2022-11-25T17:47:36;99425.44;;;10.29;74.32
48874;BME280;35220;46.204;5.220;2022-11-25T17:52:37;99426.56;;;10.09;75.54
48874;BME280;35220;46.204;5.220;2022-11-25T17:57:37;99436.97;;;10.09;75.22
48874;BME280;35220;46.204;5.220;2022-11-25T18:02:38;99444.13;;;10.26;74.51
48874;BME280;35220;46.204;5.220;2022-11-25T18:07:39;99452.59;;;10.21;75.23
48874;BME280;35220;46.204;5.220;2022-11-25T18:12:40;99454.31;;;10.16;75.31
48874;BME280;35220;46.204;5.220;2022-11-25T18:17:42;99457.00;;;9.97;75.98
48874;BME280;35220;46.204;5.220;2022-11-25T18:22:42;99469.41;;;9.83;76.01
48874;BME280;35220;46.204;5.220;2022-11-25T18:27:43;99483.25;;;9.65;76.19
48874;BME280;35220;46.204;5.220;2022-11-25T18:32:44;99488.16;;;9.43;77.21
48874;BME280;35220;46.204;5.220;2022-11-25T18:37:45;99497.91;;;9.29;77.45
48874;BME280;35220;46.204;5.220;2022-11-25T18:42:51;99500.78;;;9.21;77.77
48874;BME280;35220;46.204;5.220;2022-11-25T18:47:53;99510.03;;;9.17;77.45
48874;BME280;35220;46.204;5.220;2022-11-25T18:52:54;99529.81;;;9.18;78.18
48874;BME280;35220;46.204;5.220;2022-11-25T18:57:54;99534.00;;;9.19;78.09
48874;BME280;35220;46.204;5.220;2022-11-25T19:02:55;99534.88;;;9.13;78.02
48874;BME280;35220;46.204;5.220;2022-11-25T19:07:56;99546.59;;;8.97;79.20
48874;BME280;35220;46.204;5.220;2022-11-25T19:13:01;99553.09;;;8.88;79.44
48874;BME280;35220;46.204;5.220;2022-11-25T19:18:04;99560.38;;;8.79;79.58
48874;BME280;35220;46.204;5.220;2022-11-25T19:23:23;99577.22;;;8.70;80.43
48874;BME280;35220;46.204;5.220;2022-11-25T19:28:28;99583.94;;;8.52;80.71
48874;BME280;35220;46.204;5.220;2022-11-25T19:33:35;99588.84;;;8.35;81.93
48874;BME280;35220;46.204;5.220;2022-11-25T19:38:37;99596.88;;;8.21;81.98
48874;BME280;35220;46.204;5.220;2022-11-25T19:43:37;99589.56;;;8.11;81.59
48874;BME280;35220;46.204;5.220;2022-11-25T19:48:38;99604.75;;;8.07;81.28
48874;BME280;35220;46.204;5.220;2022-11-25T19:53:38;99605.16;;;8.04;80.54
48874;BME280;35220;46.204;5.220;2022-11-25T19:58:38;99611.41;;;7.96;81.20
48874;BME280;35220;46.204;5.220;2022-11-25T20:03:39;99628.16;;;7.94;80.41
48874;BME280;35220;46.204;5.220;2022-11-25T20:08:44;99633.97;;;7.89;80.68
48874;BME280;35220;46.204;5.220;2022-11-25T20:13:45;99640.78;;;7.84;80.61
48874;BME280;35220;46.204;5.220;2022-11-25T20:18:46;99641.75;;;7.89;80.42
48874;BME280;35220;46.204;5.220;2022-11-25T20:23:47;99654.56;;;7.84;80.45
48874;BME280;35220;46.204;5.220;2022-11-25T20:28:49;99666.75;;;7.77;80.34
48874;BME280;35220;46.204;5.220;2022-11-25T20:33:49;99666.75;;;7.70;81.06
48874;BME280;35220;46.204;5.220;2022-11-25T20:38:51;99670.75;;;7.66;81.54
48874;BME280;35220;46.204;5.220;2022-11-25T20:43:54;99675.94;;;7.66;80.86
48874;BME280;35220;46.204;5.220;2022-11-25T20:48:58;99690.31;;;7.62;80.96
48874;BME280;35220;46.204;5.220;2022-11-25T20:53:59;99695.09;;;7.58;81.29
48874;BME280;35220;46.204;5.220;2022-11-25T20:59:00;99701.50;;;7.56;81.79
48874;BME280;35220;46.204;5.220;2022-11-25T21:04:00;99691.94;;;7.50;82.17
48874;BME280;35220;46.204;5.220;2022-11-25T21:09:01;99694.72;;;7.48;81.78
48874;BME280;35220;46.204;5.220;2022-11-25T21:14:01;99706.09;;;7.47;81.46
48874;BME280;35220;46.204;5.220;2022-11-25T21:19:02;99704.72;;;7.45;82.03
48874;BME280;35220;46.204;5.220;2022-11-25T21:24:26;99720.06;;;7.46;82.38
48874;BME280;35220;46.204;5.220;2022-11-25T21:29:28;99723.44;;;7.47;81.47
48874;BME280;35220;46.204;5.220;2022-11-25T21:34:29;99723.66;;;7.45;81.40
48874;BME280;35220;46.204;5.220;2022-11-25T21:39:31;99735.03;;;7.37;82.44
48874;BME280;35220;46.204;5.220;2022-11-25T21:44:35;99726.44;;;7.50;81.54
48874;BME280;35220;46.204;5.220;2022-11-25T21:49:36;99735.41;;;7.68;81.05
48874;BME280;35220;46.204;5.220;2022-11-25T21:54:37;99748.34;;;7.74;80.76
48874;BME280;35220;46.204;5.220;2022-11-25T21:59:37;99746.78;;;7.67;80.91
48874;BME280;35220;46.204;5.220;2022-11-25T22:04:38;99749.97;;;7.55;80.72
48874;BME280;35220;46.204;5.220;2022-11-25T22:09:38;99756.56;;;7.45;80.89
48874;BME280;35220;46.204;5.220;2022-11-25T22:14:39;99759.56;;;7.41;81.15
48874;BME280;35220;46.204;5.220;2022-11-25T22:19:39;99772.72;;;7.40;81.78
48874;BME280;35220;46.204;5.220;2022-11-25T22:24:40;99768.91;;;7.49;81.42
48874;BME280;35220;46.204;5.220;2022-11-25T22:29:40;99779.09;;;7.57;81.30
48874;BME280;35220;46.204;5.220;2022-11-25T22:34:41;99790.06;;;7.59;80.85
48874;BME280;35220;46.204;5.220;2022-11-25T22:39:46;99793.66;;;7.65;80.55
48874;BME280;35220;46.204;5.220;2022-11-25T22:44:47;99803.22;;;7.85;79.72
48874;BME280;35220;46.204;5.220;2022-11-25T22:49:49;99809.59;;;8.02;79.36
48874;BME280;35220;46.204;5.220;2022-11-25T22:54:50;99814.59;;;8.10;79.08
48874;BME280;35220;46.204;5.220;2022-11-25T22:59:50;99829.75;;;8.20;78.78
48874;BME280;35220;46.204;5.220;2022-11-25T23:04:52;99826.75;;;8.30;78.48
48874;BME280;35220;46.204;5.220;2022-11-25T23:09:53;99833.13;;;8.41;78.17
48874;BME280;35220;46.204;5.220;2022-11-25T23:14:55;99830.72;;;8.26;78.54
48874;BME280;35220;46.204;5.220;2022-11-25T23:19:55;99827.78;;;8.02;79.32
48874;BME280;35220;46.204;5.220;2022-11-25T23:24:56;99825.78;;;7.84;79.98
48874;BME280;35220;46.204;5.220;2022-11-25T23:29:56;99830.19;;;7.70;80.84
48874;BME280;35220;46.204;5.220;2022-11-25T23:34:56;99837.94;;;7.64;81.00
48874;BME280;35220;46.204;5.220;2022-11-25T23:39:57;99847.72;;;7.61;81.32
48874;BME280;35220;46.204;5.220;2022-11-25T23:44:57;99846.31;;;7.52;81.97
48874;BME280;35220;46.204;5.220;2022-11-25T23:49:58;99846.31;;;7.52;80.99
48874;BME280;35220;46.204;5.220;2022-11-25T23:54:59;99847.72;;;7.48;81.31
